CYXP

Pangnirtung Airport

Pangnirtung, Canada
METAR CYXP 181900Z 25005KT 10SM -SN SCT015 OVC025 M18/M22 A2928 RMK SC3SC5 SLP921
Observed Flight Rules
Dec-18 @ 19:00 UTC (an hour ago) Marginal Visual Flight Rules
Wind Visibility Clouds Conditions
250° at 5 knots 10 miles
  • Scattered at 1,500' AGL
  • Overcast at 2,500' AGL
  • Light Snow
Temperatures Readings
Current -18°C / 0°F
Dewpoint -22°C / -8°F
Humidity 71%
Altimeter 29.28" Hg
Pressure 992.1 hPa
Elevation 23
METAR CYXP 181900Z 25005KT 10SM -SN SCT015 OVC025 M18/M22 A2928 RMK SC3SC5 SLP921
Observed Flight Rules
Dec-18 @ 19:00 UTC
(an hour ago)
MVFR
Wind Visibility
250° at 5 knots 10 miles
Clouds
  • Scattered at 1,500' AGL
  • Overcast at 2,500' AGL
Conditions
  • Light Snow
Temperature Dewpoint
-18°C / 0°F -22°C / -8°F
Humidity Altimeter Pressure
71% 29.28" Hg 992.1 hPa